sensor_id;sensor_type;location;lat;lon;timestamp;temperature;humidity
48686;DHT22;34485;51.536;3.816;2022-12-13T00:00:14;-2.20;99.90
48686;DHT22;34485;51.536;3.816;2022-12-13T00:02:43;-2.20;99.90
48686;DHT22;34485;51.536;3.816;2022-12-13T00:05:09;-2.20;99.90
48686;DHT22;34485;51.536;3.816;2022-12-13T00:07:35;-2.20;99.90
48686;DHT22;34485;51.536;3.816;2022-12-13T00:10:02;-2.20;99.90
48686;DHT22;34485;51.536;3.816;2022-12-13T00:12:28;-2.10;99.90
48686;DHT22;34485;51.536;3.816;2022-12-13T00:14:54;-2.20;99.90
48686;DHT22;34485;51.536;3.816;2022-12-13T00:17:19;-2.20;99.90
48686;DHT22;34485;51.536;3.816;2022-12-13T00:19:48;-2.20;99.90
48686;DHT22;34485;51.536;3.816;2022-12-13T00:22:14;-2.20;99.90
48686;DHT22;34485;51.536;3.816;2022-12-13T00:24:41;-2.10;99.90
48686;DHT22;34485;51.536;3.816;2022-12-13T00:27:07;-2.10;99.90
48686;DHT22;34485;51.536;3.816;2022-12-13T00:29:32;-2.20;99.90
48686;DHT22;34485;51.536;3.816;2022-12-13T00:31:58;-2.20;99.90
48686;DHT22;34485;51.536;3.816;2022-12-13T00:34:24;-2.20;99.90
48686;DHT22;34485;51.536;3.816;2022-12-13T00:36:50;-2.30;99.90
48686;DHT22;34485;51.536;3.816;2022-12-13T00:39:17;-2.20;99.90
48686;DHT22;34485;51.536;3.816;2022-12-13T00:41:43;-2.20;99.90
48686;DHT22;34485;51.536;3.816;2022-12-13T00:44:10;-2.20;99.90
48686;DHT22;34485;51.536;3.816;2022-12-13T00:46:37;-2.10;99.90
48686;DHT22;34485;51.536;3.816;2022-12-13T00:49:03;-2.20;99.90
48686;DHT22;34485;51.536;3.816;2022-12-13T00:51:31;-2.20;99.90
48686;DHT22;34485;51.536;3.816;2022-12-13T00:53:58;-2.20;99.90
48686;DHT22;34485;51.536;3.816;2022-12-13T00:56:26;-2.20;99.90
48686;DHT22;34485;51.536;3.816;2022-12-13T00:58:52;-2.20;99.90
48686;DHT22;34485;51.536;3.816;2022-12-13T01:01:20;-2.20;99.90
48686;DHT22;34485;51.536;3.816;2022-12-13T01:03:46;-2.30;99.90
48686;DHT22;34485;51.536;3.816;2022-12-13T01:06:15;-2.20;99.90
48686;DHT22;34485;51.536;3.816;2022-12-13T01:08:42;-2.30;99.90
48686;DHT22;34485;51.536;3.816;2022-12-13T01:11:08;-2.30;99.90
48686;DHT22;34485;51.536;3.816;2022-12-13T01:13:34;-2.20;99.90
48686;DHT22;34485;51.536;3.816;2022-12-13T01:16:06;-2.30;99.90
48686;DHT22;34485;51.536;3.816;2022-12-13T01:18:32;-2.20;99.90
48686;DHT22;34485;51.536;3.816;2022-12-13T01:23:24;-2.10;99.90
48686;DHT22;34485;51.536;3.816;2022-12-13T01:25:50;-2.00;99.90
48686;DHT22;34485;51.536;3.816;2022-12-13T01:28:16;-2.00;99.90
48686;DHT22;34485;51.536;3.816;2022-12-13T01:30:41;-2.00;99.90
48686;DHT22;34485;51.536;3.816;2022-12-13T01:33:07;-2.00;99.90
48686;DHT22;34485;51.536;3.816;2022-12-13T01:35:33;-2.00;99.90
48686;DHT22;34485;51.536;3.816;2022-12-13T01:37:59;-1.90;99.90
48686;DHT22;34485;51.536;3.816;2022-12-13T01:40:24;-1.90;99.90
48686;DHT22;34485;51.536;3.816;2022-12-13T01:42:50;-1.90;99.90
48686;DHT22;34485;51.536;3.816;2022-12-13T01:45:22;-2.00;99.90
48686;DHT22;34485;51.536;3.816;2022-12-13T01:47:53;-2.00;99.90
48686;DHT22;34485;51.536;3.816;2022-12-13T01:50:25;-2.10;99.90
48686;DHT22;34485;51.536;3.816;2022-12-13T01:52:52;-2.10;99.90
48686;DHT22;34485;51.536;3.816;2022-12-13T01:55:20;-2.20;99.90
48686;DHT22;34485;51.536;3.816;2022-12-13T01:57:48;-2.20;99.90
48686;DHT22;34485;51.536;3.816;2022-12-13T02:00:16;-2.20;99.90
48686;DHT22;34485;51.536;3.816;2022-12-13T02:02:42;-2.20;99.90
48686;DHT22;34485;51.536;3.816;2022-12-13T02:05:58;-2.20;99.90
48686;DHT22;34485;51.536;3.816;2022-12-13T02:07:57;-2.20;99.90
48686;DHT22;34485;51.536;3.816;2022-12-13T02:10:24;-2.10;99.90
48686;DHT22;34485;51.536;3.816;2022-12-13T02:12:50;-2.20;99.90
48686;DHT22;34485;51.536;3.816;2022-12-13T02:15:18;-2.20;99.90
48686;DHT22;34485;51.536;3.816;2022-12-13T02:21:10;-2.30;99.90
48686;DHT22;34485;51.536;3.816;2022-12-13T02:34:37;-2.40;99.90
48686;DHT22;34485;51.536;3.816;2022-12-13T02:37:22;-2.40;99.90
48686;DHT22;34485;51.536;3.816;2022-12-13T02:40:10;-2.40;99.90
48686;DHT22;34485;51.536;3.816;2022-12-13T02:42:44;-2.50;99.90
48686;DHT22;34485;51.536;3.816;2022-12-13T02:45:22;-2.50;99.90
48686;DHT22;34485;51.536;3.816;2022-12-13T02:47:53;-2.50;99.90
48686;DHT22;34485;51.536;3.816;2022-12-13T02:50:21;-2.60;99.90
48686;DHT22;34485;51.536;3.816;2022-12-13T02:52:48;-2.60;99.90
48686;DHT22;34485;51.536;3.816;2022-12-13T02:55:16;-2.70;99.90
48686;DHT22;34485;51.536;3.816;2022-12-13T02:57:43;-2.60;99.90
48686;DHT22;34485;51.536;3.816;2022-12-13T03:09:02;-2.60;99.90
48686;DHT22;34485;51.536;3.816;2022-12-13T03:11:52;-2.60;99.90
48686;DHT22;34485;51.536;3.816;2022-12-13T03:14:48;-2.60;99.90
48686;DHT22;34485;51.536;3.816;2022-12-13T03:17:19;-2.60;99.90
48686;DHT22;34485;51.536;3.816;2022-12-13T03:19:45;-2.50;99.90
48686;DHT22;34485;51.536;3.816;2022-12-13T03:22:11;-2.50;99.90
48686;DHT22;34485;51.536;3.816;2022-12-13T03:24:36;-2.50;99.90
48686;DHT22;34485;51.536;3.816;2022-12-13T03:27:02;-2.40;99.90
48686;DHT22;34485;51.536;3.816;2022-12-13T03:29:28;-2.40;99.90
48686;DHT22;34485;51.536;3.816;2022-12-13T03:31:54;-2.40;99.90
48686;DHT22;34485;51.536;3.816;2022-12-13T03:34:19;-2.30;99.90
48686;DHT22;34485;51.536;3.816;2022-12-13T03:36:45;-2.30;99.90
48686;DHT22;34485;51.536;3.816;2022-12-13T03:39:11;-2.20;99.90
48686;DHT22;34485;51.536;3.816;2022-12-13T03:41:37;-2.20;99.90
48686;DHT22;34485;51.536;3.816;2022-12-13T03:44:04;-2.20;99.90
48686;DHT22;34485;51.536;3.816;2022-12-13T03:46:30;-2.20;99.90
48686;DHT22;34485;51.536;3.816;2022-12-13T03:48:56;-2.20;99.90
48686;DHT22;34485;51.536;3.816;2022-12-13T03:51:21;-2.20;99.90
48686;DHT22;34485;51.536;3.816;2022-12-13T03:53:47;-2.20;99.90
48686;DHT22;34485;51.536;3.816;2022-12-13T03:56:13;-2.20;99.90
48686;DHT22;34485;51.536;3.816;2022-12-13T03:58:38;-2.30;99.90
48686;DHT22;34485;51.536;3.816;2022-12-13T04:01:09;-2.20;99.90
48686;DHT22;34485;51.536;3.816;2022-12-13T04:03:36;-2.30;99.90
48686;DHT22;34485;51.536;3.816;2022-12-13T04:06:03;-2.30;99.90
48686;DHT22;34485;51.536;3.816;2022-12-13T04:08:28;-2.30;99.90
48686;DHT22;34485;51.536;3.816;2022-12-13T04:10:54;-2.30;99.90
48686;DHT22;34485;51.536;3.816;2022-12-13T04:13:20;-2.30;99.90
48686;DHT22;34485;51.536;3.816;2022-12-13T04:15:57;-2.30;99.90
48686;DHT22;34485;51.536;3.816;2022-12-13T04:18:23;-2.20;99.90
48686;DHT22;34485;51.536;3.816;2022-12-13T04:20:48;-2.20;99.90
48686;DHT22;34485;51.536;3.816;2022-12-13T04:23:14;-2.20;99.90
48686;DHT22;34485;51.536;3.816;2022-12-13T04:25:40;-2.10;99.90
48686;DHT22;34485;51.536;3.816;2022-12-13T04:28:06;-2.10;99.90
48686;DHT22;34485;51.536;3.816;2022-12-13T04:30:32;-2.10;99.90
48686;DHT22;34485;51.536;3.816;2022-12-13T04:32:58;-2.20;99.90
48686;DHT22;34485;51.536;3.816;2022-12-13T04:35:24;-2.20;99.90
48686;DHT22;34485;51.536;3.816;2022-12-13T04:37:49;-2.20;99.90
48686;DHT22;34485;51.536;3.816;2022-12-13T04:40:15;-2.20;99.90
48686;DHT22;34485;51.536;3.816;2022-12-13T04:42:41;-2.20;99.90
48686;DHT22;34485;51.536;3.816;2022-12-13T04:45:08;-2.30;99.90
48686;DHT22;34485;51.536;3.816;2022-12-13T04:47:37;-2.30;99.90
48686;DHT22;34485;51.536;3.816;2022-12-13T04:50:02;-2.30;99.90
48686;DHT22;34485;51.536;3.816;2022-12-13T04:52:28;-2.30;99.90
48686;DHT22;34485;51.536;3.816;2022-12-13T04:54:54;-2.30;99.90
48686;DHT22;34485;51.536;3.816;2022-12-13T04:57:19;-2.30;99.90
48686;DHT22;34485;51.536;3.816;2022-12-13T04:59:45;-2.40;99.90
48686;DHT22;34485;51.536;3.816;2022-12-13T05:02:12;-2.40;99.90
48686;DHT22;34485;51.536;3.816;2022-12-13T05:04:37;-2.40;99.90
48686;DHT22;34485;51.536;3.816;2022-12-13T05:07:03;-2.40;99.90
48686;DHT22;34485;51.536;3.816;2022-12-13T05:09:29;-2.40;99.90
48686;DHT22;34485;51.536;3.816;2022-12-13T05:11:54;-2.30;99.90
48686;DHT22;34485;51.536;3.816;2022-12-13T05:14:20;-2.40;99.90
48686;DHT22;34485;51.536;3.816;2022-12-13T05:16:46;-2.40;99.90
48686;DHT22;34485;51.536;3.816;2022-12-13T05:19:11;-2.40;99.90
48686;DHT22;34485;51.536;3.816;2022-12-13T05:21:37;-2.40;99.90
48686;DHT22;34485;51.536;3.816;2022-12-13T05:24:03;-2.40;99.90
48686;DHT22;34485;51.536;3.816;2022-12-13T05:26:28;-2.30;99.90
48686;DHT22;34485;51.536;3.816;2022-12-13T05:28:55;-2.40;99.90
48686;DHT22;34485;51.536;3.816;2022-12-13T05:31:21;-2.40;99.90
48686;DHT22;34485;51.536;3.816;2022-12-13T05:33:46;-2.50;99.90
48686;DHT22;34485;51.536;3.816;2022-12-13T05:36:12;-2.50;99.90
48686;DHT22;34485;51.536;3.816;2022-12-13T05:38:37;-2.50;99.90
48686;DHT22;34485;51.536;3.816;2022-12-13T05:41:03;-2.50;99.90
48686;DHT22;34485;51.536;3.816;2022-12-13T05:43:29;-2.40;99.90
48686;DHT22;34485;51.536;3.816;2022-12-13T05:45:54;-2.40;99.90
48686;DHT22;34485;51.536;3.816;2022-12-13T05:48:20;-2.40;99.90
48686;DHT22;34485;51.536;3.816;2022-12-13T05:50:46;-2.50;99.90
48686;DHT22;34485;51.536;3.816;2022-12-13T05:53:12;-2.50;99.90
48686;DHT22;34485;51.536;3.816;2022-12-13T05:55:37;-2.50;99.90
48686;DHT22;34485;51.536;3.816;2022-12-13T05:58:03;-2.40;99.90
48686;DHT22;34485;51.536;3.816;2022-12-13T06:00:29;-2.50;99.90
48686;DHT22;34485;51.536;3.816;2022-12-13T06:02:56;-2.50;99.90
48686;DHT22;34485;51.536;3.816;2022-12-13T06:05:21;-2.50;99.90
48686;DHT22;34485;51.536;3.816;2022-12-13T06:07:47;-2.50;99.90
48686;DHT22;34485;51.536;3.816;2022-12-13T06:10:13;-2.50;99.90
48686;DHT22;34485;51.536;3.816;2022-12-13T06:12:38;-2.50;99.90
48686;DHT22;34485;51.536;3.816;2022-12-13T06:15:05;-2.60;99.90
48686;DHT22;34485;51.536;3.816;2022-12-13T06:17:32;-2.60;99.90
48686;DHT22;34485;51.536;3.816;2022-12-13T06:19:58;-2.50;99.90
48686;DHT22;34485;51.536;3.816;2022-12-13T06:22:24;-2.50;99.90
48686;DHT22;34485;51.536;3.816;2022-12-13T06:24:50;-2.50;99.90
48686;DHT22;34485;51.536;3.816;2022-12-13T06:27:15;-2.50;99.90
48686;DHT22;34485;51.536;3.816;2022-12-13T06:29:41;-2.50;99.90
48686;DHT22;34485;51.536;3.816;2022-12-13T06:32:06;-2.60;99.90
48686;DHT22;34485;51.536;3.816;2022-12-13T06:34:34;-2.60;99.90
48686;DHT22;34485;51.536;3.816;2022-12-13T06:37:02;-2.60;99.90
48686;DHT22;34485;51.536;3.816;2022-12-13T06:39:28;-2.70;99.90
48686;DHT22;34485;51.536;3.816;2022-12-13T06:41:54;-2.70;99.90
48686;DHT22;34485;51.536;3.816;2022-12-13T06:44:20;-2.80;99.90
48686;DHT22;34485;51.536;3.816;2022-12-13T06:46:46;-2.80;99.90
48686;DHT22;34485;51.536;3.816;2022-12-13T06:49:11;-2.90;99.90
48686;DHT22;34485;51.536;3.816;2022-12-13T06:51:37;-2.90;99.90
48686;DHT22;34485;51.536;3.816;2022-12-13T06:54:03;-2.90;99.90
48686;DHT22;34485;51.536;3.816;2022-12-13T06:56:29;-2.90;99.90
48686;DHT22;34485;51.536;3.816;2022-12-13T06:58:55;-2.90;99.90
48686;DHT22;34485;51.536;3.816;2022-12-13T07:01:20;-2.90;99.90
48686;DHT22;34485;51.536;3.816;2022-12-13T07:03:46;-2.90;99.90
48686;DHT22;34485;51.536;3.816;2022-12-13T07:06:16;-2.80;99.90
48686;DHT22;34485;51.536;3.816;2022-12-13T07:08:46;-2.70;99.90
48686;DHT22;34485;51.536;3.816;2022-12-13T07:11:13;-2.70;99.90
48686;DHT22;34485;51.536;3.816;2022-12-13T07:13:40;-2.60;99.90
48686;DHT22;34485;51.536;3.816;2022-12-13T07:16:06;-2.60;99.90
48686;DHT22;34485;51.536;3.816;2022-12-13T07:18:31;-2.60;99.90
48686;DHT22;34485;51.536;3.816;2022-12-13T07:20:58;-2.60;99.90
48686;DHT22;34485;51.536;3.816;2022-12-13T07:23:24;-2.60;99.90
48686;DHT22;34485;51.536;3.816;2022-12-13T07:25:52;-2.50;99.90
48686;DHT22;34485;51.536;3.816;2022-12-13T07:28:19;-2.50;99.90
48686;DHT22;34485;51.536;3.816;2022-12-13T07:30:45;-2.50;99.90
48686;DHT22;34485;51.536;3.816;2022-12-13T07:33:12;-2.50;99.90
48686;DHT22;34485;51.536;3.816;2022-12-13T07:35:38;-2.50;99.90
48686;DHT22;34485;51.536;3.816;2022-12-13T07:38:08;-2.50;99.90
48686;DHT22;34485;51.536;3.816;2022-12-13T07:40:34;-2.50;99.90
48686;DHT22;34485;51.536;3.816;2022-12-13T07:43:00;-2.50;99.90
48686;DHT22;34485;51.536;3.816;2022-12-13T07:45:26;-2.50;99.90
48686;DHT22;34485;51.536;3.816;2022-12-13T07:47:52;-2.50;99.90
48686;DHT22;34485;51.536;3.816;2022-12-13T07:50:18;-2.50;99.90
48686;DHT22;34485;51.536;3.816;2022-12-13T07:52:49;-2.50;99.90
48686;DHT22;34485;51.536;3.816;2022-12-13T07:55:16;-2.50;99.90
48686;DHT22;34485;51.536;3.816;2022-12-13T07:57:45;-2.40;99.90
48686;DHT22;34485;51.536;3.816;2022-12-13T08:00:11;-2.40;99.90
48686;DHT22;34485;51.536;3.816;2022-12-13T08:02:39;-2.40;99.90
48686;DHT22;34485;51.536;3.816;2022-12-13T08:05:04;-2.40;99.90
48686;DHT22;34485;51.536;3.816;2022-12-13T08:07:30;-2.40;99.90
48686;DHT22;34485;51.536;3.816;2022-12-13T08:09:56;-2.30;99.90
48686;DHT22;34485;51.536;3.816;2022-12-13T08:12:22;-2.30;99.90
48686;DHT22;34485;51.536;3.816;2022-12-13T08:14:48;-2.30;99.90
48686;DHT22;34485;51.536;3.816;2022-12-13T08:17:13;-2.20;99.90
48686;DHT22;34485;51.536;3.816;2022-12-13T08:19:39;-2.20;99.90
48686;DHT22;34485;51.536;3.816;2022-12-13T08:22:04;-2.10;99.90
48686;DHT22;34485;51.536;3.816;2022-12-13T08:24:31;-2.10;99.90
48686;DHT22;34485;51.536;3.816;2022-12-13T08:26:58;-2.10;99.90
48686;DHT22;34485;51.536;3.816;2022-12-13T08:29:28;-2.00;99.90
48686;DHT22;34485;51.536;3.816;2022-12-13T08:31:54;-2.00;99.90
48686;DHT22;34485;51.536;3.816;2022-12-13T08:34:20;-2.00;99.90
48686;DHT22;34485;51.536;3.816;2022-12-13T08:36:45;-2.00;99.90
48686;DHT22;34485;51.536;3.816;2022-12-13T08:39:11;-1.90;99.90
48686;DHT22;34485;51.536;3.816;2022-12-13T08:41:36;-1.90;99.90
48686;DHT22;34485;51.536;3.816;2022-12-13T08:44:02;-1.80;99.90
48686;DHT22;34485;51.536;3.816;2022-12-13T08:46:28;-1.70;99.90
48686;DHT22;34485;51.536;3.816;2022-12-13T08:48:53;-1.60;99.90
48686;DHT22;34485;51.536;3.816;2022-12-13T08:51:19;-1.50;99.90
48686;DHT22;34485;51.536;3.816;2022-12-13T08:53:49;-1.40;99.90
48686;DHT22;34485;51.536;3.816;2022-12-13T08:56:15;-1.40;99.90
48686;DHT22;34485;51.536;3.816;2022-12-13T08:58:41;-1.40;99.90
48686;DHT22;34485;51.536;3.816;2022-12-13T09:01:08;-1.40;99.90
48686;DHT22;34485;51.536;3.816;2022-12-13T09:03:34;-1.40;99.90
48686;DHT22;34485;51.536;3.816;2022-12-13T09:06:12;-1.40;99.90
48686;DHT22;34485;51.536;3.816;2022-12-13T09:08:38;-1.50;99.90
48686;DHT22;34485;51.536;3.816;2022-12-13T09:11:06;-1.40;99.90
48686;DHT22;34485;51.536;3.816;2022-12-13T09:13:33;-1.30;99.90
48686;DHT22;34485;51.536;3.816;2022-12-13T09:16:11;-1.10;99.90
48686;DHT22;34485;51.536;3.816;2022-12-13T09:18:37;-0.90;99.90
48686;DHT22;34485;51.536;3.816;2022-12-13T09:21:11;-0.80;99.90
48686;DHT22;34485;51.536;3.816;2022-12-13T09:23:38;-0.60;99.90
48686;DHT22;34485;51.536;3.816;2022-12-13T09:26:06;-0.60;99.90
48686;DHT22;34485;51.536;3.816;2022-12-13T09:28:34;-0.50;99.90
48686;DHT22;34485;51.536;3.816;2022-12-13T09:31:12;-0.50;99.90
48686;DHT22;34485;51.536;3.816;2022-12-13T09:33:38;-0.50;99.90
48686;DHT22;34485;51.536;3.816;2022-12-13T09:36:06;-0.40;99.90
48686;DHT22;34485;51.536;3.816;2022-12-13T09:38:32;-0.20;99.90
48686;DHT22;34485;51.536;3.816;2022-12-13T09:41:02;-0.10;99.90
48686;DHT22;34485;51.536;3.816;2022-12-13T09:43:32;0.20;99.90
48686;DHT22;34485;51.536;3.816;2022-12-13T09:46:03;0.50;99.90
48686;DHT22;34485;51.536;3.816;2022-12-13T09:48:30;0.40;99.90
48686;DHT22;34485;51.536;3.816;2022-12-13T09:50:55;0.40;99.90
48686;DHT22;34485;51.536;3.816;2022-12-13T09:53:21;0.50;99.90
48686;DHT22;34485;51.536;3.816;2022-12-13T09:55:48;0.30;99.90
48686;DHT22;34485;51.536;3.816;2022-12-13T09:58:26;0.30;99.90
48686;DHT22;34485;51.536;3.816;2022-12-13T10:00:54;0.20;99.90
48686;DHT22;34485;51.536;3.816;2022-12-13T10:03:21;0.10;99.90
48686;DHT22;34485;51.536;3.816;2022-12-13T10:05:56;0.00;99.90
48686;DHT22;34485;51.536;3.816;2022-12-13T10:10:51;-0.20;99.90
48686;DHT22;34485;51.536;3.816;2022-12-13T10:13:39;-0.30;99.90
48686;DHT22;34485;51.536;3.816;2022-12-13T12:06:20;0.20;99.90
48686;DHT22;34485;51.536;3.816;2022-12-13T12:09:02;0.10;99.90
48686;DHT22;34485;51.536;3.816;2022-12-13T12:16:54;0.10;99.90
48686;DHT22;34485;51.536;3.816;2022-12-13T12:19:24;0.10;99.90
48686;DHT22;34485;51.536;3.816;2022-12-13T12:21:57;0.00;99.90
48686;DHT22;34485;51.536;3.816;2022-12-13T12:27:36;0.10;99.90
48686;DHT22;34485;51.536;3.816;2022-12-13T12:36:07;0.10;99.90
48686;DHT22;34485;51.536;3.816;2022-12-13T13:04:08;0.30;99.90
48686;DHT22;34485;51.536;3.816;2022-12-13T13:06:46;0.40;99.90
48686;DHT22;34485;51.536;3.816;2022-12-13T13:09:16;0.40;99.90
48686;DHT22;34485;51.536;3.816;2022-12-13T13:11:44;0.40;99.90
48686;DHT22;34485;51.536;3.816;2022-12-13T13:14:33;0.40;99.90
48686;DHT22;34485;51.536;3.816;2022-12-13T13:19:44;0.50;99.90
48686;DHT22;34485;51.536;3.816;2022-12-13T13:22:33;0.40;99.90
48686;DHT22;34485;51.536;3.816;2022-12-13T13:25:28;0.50;99.90
48686;DHT22;34485;51.536;3.816;2022-12-13T13:28:15;0.40;99.90
48686;DHT22;34485;51.536;3.816;2022-12-13T13:33:45;0.40;99.90
48686;DHT22;34485;51.536;3.816;2022-12-13T13:53:00;0.40;99.90
48686;DHT22;34485;51.536;3.816;2022-12-13T14:10:12;0.40;99.90
48686;DHT22;34485;51.536;3.816;2022-12-13T14:19:09;0.30;99.90
48686;DHT22;34485;51.536;3.816;2022-12-13T14:22:29;0.30;99.90
48686;DHT22;34485;51.536;3.816;2022-12-13T14:24:45;0.40;99.90
48686;DHT22;34485;51.536;3.816;2022-12-13T14:27:53;0.30;99.90
48686;DHT22;34485;51.536;3.816;2022-12-13T14:30:23;0.30;99.90
48686;DHT22;34485;51.536;3.816;2022-12-13T14:32:49;0.30;99.90
48686;DHT22;34485;51.536;3.816;2022-12-13T14:37:58;0.20;99.90
48686;DHT22;34485;51.536;3.816;2022-12-13T14:40:31;0.20;99.90
48686;DHT22;34485;51.536;3.816;2022-12-13T14:42:57;0.20;99.90
48686;DHT22;34485;51.536;3.816;2022-12-13T14:47:55;0.20;99.90
48686;DHT22;34485;51.536;3.816;2022-12-13T14:50:27;0.10;99.90
48686;DHT22;34485;51.536;3.816;2022-12-13T15:05:27;0.30;99.90
48686;DHT22;34485;51.536;3.816;2022-12-13T15:07:53;0.00;99.90
48686;DHT22;34485;51.536;3.816;2022-12-13T15:12:48;-0.10;99.90
48686;DHT22;34485;51.536;3.816;2022-12-13T15:15:25;-0.20;99.90
48686;DHT22;34485;51.536;3.816;2022-12-13T15:20:31;-0.20;99.90
48686;DHT22;34485;51.536;3.816;2022-12-13T15:23:04;-0.30;99.90
48686;DHT22;34485;51.536;3.816;2022-12-13T15:25:34;-0.30;99.90
48686;DHT22;34485;51.536;3.816;2022-12-13T15:28:00;-0.30;99.90
48686;DHT22;34485;51.536;3.816;2022-12-13T15:30:28;-0.30;99.90
48686;DHT22;34485;51.536;3.816;2022-12-13T15:33:28;-0.30;99.90
48686;DHT22;34485;51.536;3.816;2022-12-13T15:36:23;-0.40;99.90
48686;DHT22;34485;51.536;3.816;2022-12-13T15:41:34;-0.30;99.90
48686;DHT22;34485;51.536;3.816;2022-12-13T15:44:16;-0.30;99.90
48686;DHT22;34485;51.536;3.816;2022-12-13T15:46:45;-0.30;99.90
48686;DHT22;34485;51.536;3.816;2022-12-13T15:49:26;-0.30;99.90
48686;DHT22;34485;51.536;3.816;2022-12-13T15:52:00;-0.30;99.90
48686;DHT22;34485;51.536;3.816;2022-12-13T15:54:26;-0.50;99.90
48686;DHT22;34485;51.536;3.816;2022-12-13T18:50:59;-0.50;99.90
48686;DHT22;34485;51.536;3.816;2022-12-13T18:53:26;-0.50;99.90
48686;DHT22;34485;51.536;3.816;2022-12-13T18:55:58;-0.60;99.90
48686;DHT22;34485;51.536;3.816;2022-12-13T18:58:24;-0.60;99.90
